Time;durP1;ratioP1;P1;durP2;ratioP2;P2;SDS_P1;SDS_P2;PMS_P1;PMS_P2;Temp;Humidity;BMP_temperature;BMP_pressure;BME280_temperature;BME280_humidity;BME280_pressure;Samples;Min_cycle;Max_cycle;Signal;HPM_P1;HPM_P2
2022/03/08 00:01:32;;;;;;;26.75;17.08;;;;;;;8.64;39.05;101860.72;5071166;28;20055;-62
2022/03/08 00:04:00;;;;;;;28.75;17.65;;;;;;;8.62;38.81;101866.91;5072932;28;20044;-62
2022/03/08 00:06:26;;;;;;;29.38;18.45;;;;;;;8.56;38.74;101873.19;5073237;28;20072;-64
2022/03/08 00:08:53;;;;;;;29.00;18.17;;;;;;;8.54;38.86;101871.53;5058955;28;20044;-63
2022/03/08 00:11:20;;;;;;;27.63;18.33;;;;;;;8.53;38.85;101864.56;5072983;28;20538;-63
2022/03/08 00:13:50;;;;;;;30.38;18.67;;;;;;;8.52;38.87;101881.16;5072041;28;20048;-62
2022/03/08 00:16:18;;;;;;;25.90;17.55;;;;;;;8.50;38.96;101879.44;5072976;28;20052;-62
2022/03/08 00:18:45;;;;;;;28.75;18.25;;;;;;;8.49;38.80;101884.72;5072606;28;20044;-62
2022/03/08 00:21:12;;;;;;;30.00;17.83;;;;;;;8.47;38.80;101884.78;5072645;28;20048;-63
2022/03/08 00:23:38;;;;;;;27.33;17.65;;;;;;;8.44;38.78;101884.84;5072366;28;20425;-62
2022/03/08 00:26:05;;;;;;;27.58;18.20;;;;;;;8.42;38.99;101881.41;5072290;28;20055;-62
2022/03/08 00:28:32;;;;;;;29.38;19.17;;;;;;;8.41;39.07;101886.69;5071461;28;20067;-62
2022/03/08 00:31:00;;;;;;;29.02;19.52;;;;;;;8.41;39.03;101892.78;5072459;28;20047;-65
2022/03/08 00:33:27;;;;;;;29.30;18.67;;;;;;;8.38;39.23;101892.00;5072420;28;20055;-62
2022/03/08 00:35:53;;;;;;;32.10;18.90;;;;;;;8.36;39.08;101892.06;5072392;28;20037;-62
2022/03/08 00:38:21;;;;;;;30.35;19.40;;;;;;;8.35;39.05;101895.56;5072460;28;20497;-63
2022/03/08 00:40:47;;;;;;;31.38;19.35;;;;;;;8.38;39.22;101899.84;5072333;28;20045;-63
2022/03/08 00:43:15;;;;;;;27.55;18.77;;;;;;;8.36;39.02;101894.66;5072079;28;20056;-64
2022/03/08 00:45:42;;;;;;;31.00;19.60;;;;;;;8.34;38.97;101897.34;5070278;28;20492;-62
2022/03/08 00:48:09;;;;;;;27.02;18.50;;;;;;;8.30;39.05;101898.31;5072393;28;20044;-64
2022/03/08 00:50:38;;;;;;;31.13;19.25;;;;;;;8.28;39.14;101899.28;5072146;28;20040;-62
2022/03/08 00:53:05;;;;;;;30.75;18.73;;;;;;;8.26;39.04;101896.69;5072254;28;20040;-62
2022/03/08 00:55:33;;;;;;;27.13;17.90;;;;;;;8.24;39.13;101911.56;5072436;28;20040;-63
2022/03/08 00:58:00;;;;;;;27.70;18.15;;;;;;;8.27;39.20;101916.69;5071891;28;20089;-62
2022/03/08 01:00:29;;;;;;;28.65;18.45;;;;;;;8.22;38.94;101902.91;5072173;28;20562;-63
2022/03/08 01:02:56;;;;;;;27.40;18.17;;;;;;;8.22;39.19;101915.97;5071557;28;20056;-62
2022/03/08 01:05:23;;;;;;;25.67;17.52;;;;;;;8.19;38.99;101916.06;5072064;28;20068;-63
2022/03/08 01:07:51;;;;;;;26.77;17.92;;;;;;;8.18;39.11;101925.66;5072002;28;20087;-62
2022/03/08 01:10:21;;;;;;;28.85;18.80;;;;;;;8.17;38.99;101920.47;5072048;28;20377;-62
2022/03/08 01:12:49;;;;;;;29.15;18.58;;;;;;;8.15;39.01;101928.38;5071579;28;20060;-62
2022/03/08 01:15:18;;;;;;;25.77;17.83;;;;;;;8.11;38.88;101928.47;5072017;28;20044;-62
2022/03/08 01:17:47;;;;;;;29.83;18.38;;;;;;;8.08;39.27;101926.81;5071104;28;20551;-62
2022/03/08 01:20:14;;;;;;;27.92;18.75;;;;;;;8.05;38.96;101926.91;5071970;28;20048;-62
2022/03/08 01:22:41;;;;;;;26.92;17.63;;;;;;;8.05;38.89;101928.66;5071774;28;20405;-63
2022/03/08 01:25:10;;;;;;;27.95;18.45;;;;;;;8.06;38.81;101931.22;5071821;28;20550;-62
2022/03/08 01:27:37;;;;;;;27.30;18.35;;;;;;;8.06;38.70;101930.38;5071233;28;20044;-63
2022/03/08 01:30:10;;;;;;;26.70;17.63;;;;;;;7.98;38.89;101933.19;5071718;28;20086;-63
2022/03/08 01:32:37;;;;;;;28.17;18.40;;;;;;;8.05;38.89;101933.88;5071529;28;20055;-63
2022/03/08 01:35:04;;;;;;;32.35;18.52;;;;;;;8.05;38.56;101936.50;5071064;28;20040;-62
2022/03/08 01:37:31;;;;;;;28.23;18.63;;;;;;;8.00;38.80;101936.63;5071602;28;20044;-63
2022/03/08 01:39:58;;;;;;;29.00;19.20;;;;;;;7.97;38.95;101937.56;5071518;28;20040;-64
2022/03/08 01:42:25;;;;;;;29.02;18.35;;;;;;;7.95;39.02;101941.97;5071563;28;20501;-62
2022/03/08 01:44:52;;;;;;;28.88;18.55;;;;;;;7.96;39.03;101937.59;5071448;28;20041;-62
2022/03/08 01:47:21;;;;;;;29.33;17.88;;;;;;;7.91;39.03;101936.84;5071765;28;20144;-62
2022/03/08 01:49:50;;;;;;;25.58;17.67;;;;;;;7.91;38.87;101937.72;5071315;28;20052;-62
2022/03/08 01:52:20;;;;;;;28.02;18.80;;;;;;;7.92;38.81;101931.59;5070760;28;20041;-62
2022/03/08 01:54:47;;;;;;;26.95;18.50;;;;;;;7.90;38.97;101937.75;5071292;28;20071;-62
2022/03/08 01:57:14;;;;;;;26.95;17.98;;;;;;;7.91;38.83;101932.50;5074268;28;20040;-63
2022/03/08 01:59:41;;;;;;;25.60;17.52;;;;;;;7.91;38.96;101936.84;5075053;28;20090;-62
2022/03/08 02:02:09;;;;;;;27.00;17.85;;;;;;;7.91;38.98;101940.34;5075595;28;20079;-63
2022/03/08 02:04:36;;;;;;;26.60;18.23;;;;;;;7.91;38.91;101949.91;5075627;28;20060;-63
2022/03/08 02:07:04;;;;;;;26.17;18.13;;;;;;;7.89;38.97;101946.50;5074372;28;20063;-62
2022/03/08 02:09:31;;;;;;;26.35;17.95;;;;;;;7.87;39.09;101936.06;5075404;28;20049;-61
2022/03/08 02:11:58;;;;;;;28.73;17.75;;;;;;;7.89;38.83;101942.13;5075155;28;20094;-62
2022/03/08 02:14:26;;;;;;;24.23;18.25;;;;;;;7.88;38.86;101950.84;5075201;28;20510;-62
2022/03/08 02:16:53;;;;;;;28.50;18.42;;;;;;;7.90;39.07;101943.84;5074939;28;20071;-62
2022/03/08 02:19:20;;;;;;;27.70;17.33;;;;;;;7.90;38.89;101945.59;5075312;28;20044;-62
2022/03/08 02:21:50;;;;;;;25.08;17.83;;;;;;;7.89;38.83;101944.75;5074864;28;20045;-63
2022/03/08 02:24:17;;;;;;;27.17;18.70;;;;;;;7.90;38.81;101943.84;5073976;28;20484;-62
2022/03/08 02:26:45;;;;;;;27.80;17.50;;;;;;;7.88;38.79;101940.41;5074974;28;20044;-63
2022/03/08 02:29:12;;;;;;;26.38;17.95;;;;;;;7.85;38.82;101937.88;5074587;28;20052;-62
2022/03/08 02:31:39;;;;;;;25.10;17.20;;;;;;;7.80;38.85;101948.44;5074693;28;20534;-62
2022/03/08 02:34:06;;;;;;;25.30;16.38;;;;;;;7.84;38.89;101939.63;5074716;28;20132;-62
2022/03/08 02:36:33;;;;;;;24.02;16.42;;;;;;;7.83;38.97;101937.94;5074718;28;20243;-62
2022/03/08 02:38:59;;;;;;;26.65;17.17;;;;;;;7.82;38.64;101933.59;5073950;28;20047;-63
2022/03/08 02:41:26;;;;;;;26.45;16.95;;;;;;;7.82;38.89;101933.59;5074655;28;20098;-64
2022/03/08 02:43:53;;;;;;;26.92;17.52;;;;;;;7.84;38.89;101939.63;5074682;28;20048;-63
2022/03/08 02:46:19;;;;;;;22.02;16.08;;;;;;;7.85;38.71;101936.13;5074722;28;20045;-62
2022/03/08 02:48:46;;;;;;;23.92;16.60;;;;;;;7.88;38.55;101937.78;5074552;28;20124;-63
2022/03/08 02:51:13;;;;;;;24.67;15.68;;;;;;;7.86;38.67;101942.22;5074638;28;20048;-62
2022/03/08 02:53:40;;;;;;;25.58;15.77;;;;;;;7.84;38.58;101944.84;5074315;28;20055;-63
2022/03/08 02:56:06;;;;;;;24.45;15.65;;;;;;;7.85;38.42;101937.88;5073692;28;20504;-64
2022/03/08 02:58:33;;;;;;;24.27;16.02;;;;;;;7.87;38.29;101946.53;5074356;28;20408;-62
2022/03/08 03:00:59;;;;;;;22.52;15.10;;;;;;;7.89;38.20;101947.34;5074369;28;20074;-63
2022/03/08 03:03:26;;;;;;;21.75;15.43;;;;;;;7.87;38.11;101949.13;5074248;28;20045;-62
2022/03/08 03:05:53;;;;;;;22.23;14.20;;;;;;;7.86;38.14;101950.06;5074257;28;20048;-62
2022/03/08 03:08:21;;;;;;;21.90;13.85;;;;;;;7.87;38.22;101949.13;5073192;28;20048;-63
2022/03/08 03:10:47;;;;;;;23.85;14.63;;;;;;;7.87;38.00;101937.84;5073436;28;20098;-64
2022/03/08 03:13:14;;;;;;;19.63;13.57;;;;;;;7.87;37.89;101940.44;5074004;28;20048;-62
2022/03/08 03:15:41;;;;;;;21.20;14.35;;;;;;;7.88;37.94;101943.03;5074260;28;20090;-63
2022/03/08 03:18:10;;;;;;;20.00;13.93;;;;;;;7.89;37.77;101941.28;5074171;28;20097;-62
2022/03/08 03:20:37;;;;;;;19.35;13.50;;;;;;;7.87;37.84;101945.69;5073916;28;20484;-63
2022/03/08 03:23:03;;;;;;;19.35;13.52;;;;;;;7.88;38.05;101948.25;5074006;28;20052;-62
2022/03/08 03:25:30;;;;;;;19.83;12.77;;;;;;;7.87;37.91;101954.38;5073931;28;20056;-62
2022/03/08 03:27:57;;;;;;;20.75;12.45;;;;;;;7.87;37.76;101946.53;5072504;28;20078;-63
2022/03/08 03:30:23;;;;;;;21.08;13.23;;;;;;;7.88;37.59;101953.47;5073544;28;20052;-62
2022/03/08 03:32:50;;;;;;;17.60;12.50;;;;;;;7.91;37.51;101953.41;5073765;28;20417;-62
2022/03/08 03:35:17;;;;;;;16.33;12.18;;;;;;;7.92;37.56;101951.66;5073793;28;20048;-62
2022/03/08 03:37:44;;;;;;;17.75;11.82;;;;;;;7.89;37.72;101947.34;5073416;28;20087;-61
2022/03/08 03:40:12;;;;;;;18.80;11.75;;;;;;;7.84;37.62;101957.91;5073609;28;20075;-62
2022/03/08 03:42:38;;;;;;;20.15;11.43;;;;;;;7.85;37.42;101953.56;5073414;28;20098;-62
2022/03/08 03:45:06;;;;;;;17.92;12.05;;;;;;;7.84;37.43;101954.47;5072586;28;20523;-63
2022/03/08 03:47:34;;;;;;;15.93;11.65;;;;;;;7.81;37.35;101958.00;5073428;28;20060;-62
2022/03/08 03:50:01;;;;;;;17.63;11.43;;;;;;;7.81;37.04;101960.63;5073613;28;20045;-62
2022/03/08 03:52:29;;;;;;;17.08;11.55;;;;;;;7.82;37.02;101959.72;5073523;28;20051;-62
2022/03/08 03:54:56;;;;;;;17.52;12.25;;;;;;;7.85;37.10;101967.47;5073028;28;20071;-62
2022/03/08 03:57:22;;;;;;;16.67;12.23;;;;;;;7.81;37.05;101963.22;5073404;28;20071;-62
2022/03/08 03:59:50;;;;;;;18.58;12.48;;;;;;;7.85;36.93;101966.63;5071914;28;20052;-62
2022/03/08 04:02:16;;;;;;;21.13;12.45;;;;;;;7.87;36.87;101970.03;5071485;28;20114;-62
2022/03/08 04:04:43;;;;;;;16.55;12.18;;;;;;;7.91;37.01;101971.72;5068749;28;20091;-62
2022/03/08 04:07:10;;;;;;;19.33;12.10;;;;;;;7.89;36.78;101973.50;5069826;28;20509;-62
2022/03/08 04:09:37;;;;;;;17.48;11.52;;;;;;;7.88;36.92;101965.69;5069938;28;20385;-63
2022/03/08 04:12:04;;;;;;;21.00;12.63;;;;;;;7.93;36.93;101967.28;5069622;28;20090;-62
2022/03/08 04:14:31;;;;;;;16.88;12.68;;;;;;;7.89;37.02;101970.88;5069648;28;20048;-62
2022/03/08 04:16:57;;;;;;;17.73;12.10;;;;;;;7.74;37.21;101974.72;5068246;28;20041;-62
2022/03/08 04:19:24;;;;;;;19.20;12.68;;;;;;;7.77;37.31;101976.41;5069349;28;20044;-62
2022/03/08 04:21:51;;;;;;;19.17;12.35;;;;;;;7.91;37.07;101974.31;5069417;28;20429;-62
2022/03/08 04:24:17;;;;;;;19.60;13.13;;;;;;;7.95;36.97;101977.72;5069204;28;20052;-62
2022/03/08 04:26:44;;;;;;;17.05;12.13;;;;;;;7.96;36.84;101975.06;5069380;28;20044;-62
2022/03/08 04:29:11;;;;;;;19.30;11.30;;;;;;;7.94;36.78;101963.78;5068765;28;20106;-62
2022/03/08 04:31:37;;;;;;;19.30;12.75;;;;;;;7.96;36.96;101969.81;5069263;28;20098;-63
2022/03/08 04:34:04;;;;;;;19.02;12.65;;;;;;;7.97;36.95;101966.31;5068422;28;20049;-62
2022/03/08 04:36:31;;;;;;;18.17;12.20;;;;;;;7.97;37.09;101961.09;5069038;28;20037;-62
2022/03/08 04:38:57;;;;;;;18.17;12.25;;;;;;;7.96;37.16;101969.81;5069102;28;20048;-62
2022/03/08 04:41:24;;;;;;;20.45;13.32;;;;;;;7.96;37.39;101969.81;5069256;28;20067;-62
2022/03/08 04:43:51;;;;;;;17.88;12.63;;;;;;;7.92;37.44;101973.44;5068974;28;20524;-62
2022/03/08 04:46:17;;;;;;;20.77;13.98;;;;;;;7.89;37.60;101970.03;5068800;28;20048;-62
2022/03/08 04:48:44;;;;;;;19.60;13.55;;;;;;;7.90;37.65;101971.72;5068924;28;20036;-62
2022/03/08 04:51:11;;;;;;;20.95;13.02;;;;;;;7.89;37.69;101970.03;5068241;28;20161;-62
2022/03/08 04:53:39;;;;;;;21.55;12.93;;;;;;;7.91;37.93;101960.38;5068865;28;20110;-62
2022/03/08 04:56:05;;;;;;;18.65;12.20;;;;;;;7.90;37.84;101959.53;5069126;28;20110;-61
2022/03/08 04:58:32;;;;;;;20.65;12.30;;;;;;;7.88;37.80;101970.91;5068559;28;20448;-62
2022/03/08 05:00:59;;;;;;;24.83;12.80;;;;;;;7.84;38.12;101970.97;5068682;28;20048;-62
2022/03/08 05:03:26;;;;;;;20.35;13.07;;;;;;;7.81;38.14;101973.69;5068966;28;20044;-62
2022/03/08 05:05:53;;;;;;;21.02;13.05;;;;;;;7.80;38.24;101964.13;5069110;28;20072;-62
2022/03/08 05:08:19;;;;;;;22.48;12.88;;;;;;;7.78;38.49;101965.06;5067858;28;20079;-62
2022/03/08 05:10:46;;;;;;;18.52;11.93;;;;;;;7.78;38.71;101963.31;5068747;28;20766;-62
2022/03/08 05:13:12;;;;;;;19.02;12.77;;;;;;;7.78;38.60;101959.84;5068778;28;20040;-62
2022/03/08 05:15:39;;;;;;;20.50;12.70;;;;;;;7.79;38.74;101966.78;5068374;28;20045;-62
2022/03/08 05:18:06;;;;;;;20.63;12.93;;;;;;;7.76;38.92;101966.88;5068627;28;20382;-62
2022/03/08 05:20:33;;;;;;;20.55;12.90;;;;;;;7.73;39.02;101967.78;5068779;28;20413;-62
2022/03/08 05:23:00;;;;;;;19.17;13.05;;;;;;;7.74;39.10;101964.28;5068243;28;20044;-62
2022/03/08 05:25:30;;;;;;;23.63;13.45;;;;;;;7.75;39.34;101965.16;5068043;28;20056;-62
2022/03/08 05:27:57;;;;;;;20.23;12.73;;;;;;;7.72;39.44;101966.09;5067991;28;20040;-62
2022/03/08 05:30:24;;;;;;;20.38;13.38;;;;;;;7.72;39.56;101967.81;5068107;28;20057;-62
2022/03/08 05:32:51;;;;;;;25.33;13.57;;;;;;;7.73;39.74;101974.78;5068361;28;20040;-62
2022/03/08 05:35:18;;;;;;;21.60;12.63;;;;;;;7.70;39.82;101973.09;5068546;28;20053;-62
2022/03/08 05:37:44;;;;;;;25.48;12.85;;;;;;;7.71;39.76;101971.31;5068090;28;20497;-62
2022/03/08 05:40:11;;;;;;;26.15;14.38;;;;;;;7.70;39.94;101980.09;5067450;28;20044;-62
2022/03/08 05:42:38;;;;;;;25.92;15.27;;;;;;;7.71;39.88;101974.81;5068189;28;20380;-62
2022/03/08 05:45:07;;;;;;;25.75;14.68;;;;;;;7.68;40.02;101972.25;5068301;28;20049;-63
2022/03/08 05:47:35;;;;;;;27.05;14.13;;;;;;;7.70;39.94;101972.25;5068406;28;20118;-63
2022/03/08 05:50:04;;;;;;;23.20;13.23;;;;;;;7.70;39.79;101980.94;5068129;28;20047;-62
2022/03/08 05:52:31;;;;;;;23.77;13.15;;;;;;;7.68;39.57;101980.97;5068485;28;20109;-62
2022/03/08 05:54:58;;;;;;;20.73;12.93;;;;;;;7.68;39.82;101987.94;5066942;28;20076;-62
2022/03/08 05:57:25;;;;;;;21.73;12.40;;;;;;;7.67;39.77;101984.47;5067998;28;20041;-63
2022/03/08 05:59:51;;;;;;;18.42;11.73;;;;;;;7.67;40.17;101994.94;5067844;28;20048;-62
2022/03/08 06:02:19;;;;;;;21.80;12.55;;;;;;;7.68;40.13;101998.38;5068251;28;20509;-63
2022/03/08 06:04:46;;;;;;;22.80;13.07;;;;;;;7.66;40.39;102000.19;5067245;28;20074;-62
2022/03/08 06:07:12;;;;;;;10.70;5.93;;;;;;;8.04;40.96;102000.13;5064498;28;20051;-62
2022/03/08 06:09:39;;;;;;;9.75;6.95;;;;;;;9.36;42.70;102003.41;5066891;28;20052;-61
2022/03/08 06:12:07;;;;;;;24.02;12.95;;;;;;;9.23;43.61;102000.31;5066642;28;20045;-62
2022/03/08 06:14:33;;;;;;;19.00;13.18;;;;;;;8.81;43.98;102001.56;5067834;28;20052;-62
2022/03/08 06:17:00;;;;;;;20.83;12.70;;;;;;;8.56;43.65;101995.28;5067710;28;20060;-62
2022/03/08 06:19:27;;;;;;;24.23;13.02;;;;;;;8.36;42.98;101999.28;5067200;28;20099;-61
2022/03/08 06:21:53;;;;;;;21.55;13.00;;;;;;;8.26;42.47;101997.81;5067481;28;20045;-62
2022/03/08 06:24:20;;;;;;;21.85;12.98;;;;;;;8.16;42.13;102005.03;5068030;28;20048;-61
2022/03/08 06:26:46;;;;;;;24.17;12.90;;;;;;;8.10;41.88;102008.69;5068000;28;20041;-64
2022/03/08 06:29:13;;;;;;;23.73;13.90;;;;;;;8.05;41.61;102007.94;5065981;28;20044;-62
2022/03/08 06:31:40;;;;;;;22.25;13.63;;;;;;;7.99;41.42;102006.34;5067129;28;20041;-62
2022/03/08 06:34:07;;;;;;;24.88;12.52;;;;;;;7.96;41.32;102014.25;5067916;28;20102;-62
2022/03/08 06:36:34;;;;;;;33.33;14.20;;;;;;;7.95;41.10;102009.09;5067860;28;20048;-61
2022/03/08 06:39:02;;;;;;;23.33;13.23;;;;;;;7.94;40.88;102012.59;5067818;28;20106;-63
2022/03/08 06:41:28;;;;;;;25.13;14.32;;;;;;;7.92;40.79;102015.25;5067908;28;20040;-61
2022/03/08 06:43:55;;;;;;;25.00;13.75;;;;;;;7.94;40.81;102015.19;5070358;28;20072;-61
2022/03/08 06:46:22;;;;;;;24.70;15.35;;;;;;;7.95;40.78;102023.00;5071464;28;20484;-61
2022/03/08 06:48:48;;;;;;;28.02;14.13;;;;;;;7.96;40.72;102019.50;5071236;28;20041;-62
2022/03/08 06:51:15;;;;;;;21.65;12.80;;;;;;;7.96;40.81;102014.25;5071318;28;20052;-61
2022/03/08 06:53:42;;;;;;;25.98;13.45;;;;;;;8.49;40.63;102020.75;5070570;28;20495;-61
2022/03/08 06:56:08;;;;;;;26.05;12.88;;;;;;;8.27;40.74;102020.47;5070321;28;20102;-60
2022/03/08 06:58:35;;;;;;;22.27;13.45;;;;;;;8.18;40.62;102022.41;5071031;28;20392;-60
2022/03/08 07:01:02;;;;;;;21.00;13.20;;;;;;;8.16;40.59;102028.56;5070058;28;20211;-61
2022/03/08 07:03:29;;;;;;;20.88;12.85;;;;;;;8.14;40.66;102031.22;5068772;28;20412;-60
2022/03/08 07:05:55;;;;;;;19.08;12.75;;;;;;;8.16;40.77;102033.81;5070818;28;20049;-60
2022/03/08 07:08:23;;;;;;;26.48;13.57;;;;;;;8.30;40.72;102034.31;5070590;28;20040;-62
2022/03/08 07:10:50;;;;;;;37.25;13.15;;;;;;;8.43;40.52;102033.97;5071003;28;20056;-67
2022/03/08 07:13:16;;;;;;;32.00;15.13;;;;;;;8.24;40.81;102039.72;5070875;28;20587;-61
2022/03/08 07:15:43;;;;;;;30.90;13.88;;;;;;;8.22;40.43;102041.50;5069897;28;20102;-62
2022/03/08 07:18:10;;;;;;;37.85;14.30;;;;;;;8.20;40.43;102040.66;5070608;28;20048;-62
2022/03/08 07:20:37;;;;;;;20.30;13.05;;;;;;;8.22;40.80;102041.50;5070393;28;20044;-62
2022/03/08 07:23:03;;;;;;;27.25;14.40;;;;;;;8.26;40.90;102052.75;5070762;28;20036;-61
2022/03/08 07:25:30;;;;;;;22.85;14.77;;;;;;;8.25;40.75;102054.50;5070243;28;20052;-61
2022/03/08 07:27:57;;;;;;;26.83;14.65;;;;;;;8.28;40.89;102054.41;5069993;28;20485;-59
2022/03/08 07:30:43;;;;;;;34.88;17.00;;;;;;;8.32;40.83;102061.28;5067146;28;20044;-61
2022/03/08 07:33:10;;;;;;;25.33;16.30;;;;;;;8.34;40.88;102062.09;5070431;28;20523;-60
2022/03/08 07:35:37;;;;;;;22.63;15.55;;;;;;;8.34;40.83;102066.47;5069463;28;20052;-60
2022/03/08 07:38:03;;;;;;;27.77;15.90;;;;;;;8.37;40.95;102063.78;5068323;28;20045;-62
2022/03/08 07:40:30;;;;;;;24.50;14.43;;;;;;;8.40;41.12;102070.69;5070263;28;20106;-61
2022/03/08 07:42:57;;;;;;;24.90;15.20;;;;;;;8.41;40.87;102072.41;5070048;28;20056;-62
2022/03/08 07:45:23;;;;;;;23.58;14.48;;;;;;;8.42;40.91;102068.91;5070119;28;20049;-61
2022/03/08 07:47:50;;;;;;;22.75;14.35;;;;;;;8.44;40.88;102078.44;5070177;28;20064;-61
2022/03/08 07:50:17;;;;;;;25.13;14.50;;;;;;;8.48;40.86;102074.84;5065660;28;20638;-64
2022/03/08 07:52:46;;;;;;;27.17;14.00;;;;;;;8.55;40.86;102072.06;5069270;28;20079;-62
2022/03/08 07:55:13;;;;;;;19.95;13.93;;;;;;;8.56;40.75;102079.00;5067817;28;20063;-62
2022/03/08 07:57:40;;;;;;;24.10;13.85;;;;;;;8.58;40.91;102080.72;5069626;28;20044;-62
2022/03/08 08:00:28;;;;;;;21.48;13.38;;;;;;;8.62;40.64;102079.72;5069730;28;20128;-62
2022/03/08 08:02:54;;;;;;;25.95;12.68;;;;;;;8.65;40.38;102084.84;5069383;28;20068;-61
2022/03/08 08:05:22;;;;;;;20.25;11.80;;;;;;;8.70;39.97;102084.75;5068538;28;20055;-62
2022/03/08 08:07:48;;;;;;;25.08;13.05;;;;;;;8.75;39.83;102084.63;5069497;28;20045;-62
2022/03/08 08:10:15;;;;;;;23.83;12.35;;;;;;;8.79;39.93;102094.09;5069132;28;20052;-62
2022/03/08 08:12:42;;;;;;;19.50;12.00;;;;;;;8.86;39.55;102092.16;5069443;28;20044;-62
2022/03/08 08:15:09;;;;;;;17.30;11.13;;;;;;;8.87;39.21;102088.66;5068939;28;20500;-67
2022/03/08 08:17:35;;;;;;;20.50;10.50;;;;;;;8.93;38.70;102098.97;5069178;28;20063;-62
2022/03/08 08:20:03;;;;;;;14.35;8.82;;;;;;;8.97;38.44;102098.81;5069047;28;20106;-62
2022/03/08 08:22:30;;;;;;;15.70;9.45;;;;;;;9.03;37.69;102099.53;5063607;28;20062;-62
2022/03/08 08:24:57;;;;;;;13.65;9.90;;;;;;;9.05;37.19;102095.97;5069071;28;20064;-62
2022/03/08 08:27:23;;;;;;;14.32;9.90;;;;;;;9.11;36.92;102098.41;5069044;28;20040;-66
2022/03/08 08:29:50;;;;;;;16.65;10.20;;;;;;;9.20;36.52;102099.06;5069142;28;20496;-62
2022/03/08 08:32:17;;;;;;;18.60;9.98;;;;;;;9.26;36.21;102097.13;5068756;28;20044;-62
2022/03/08 08:34:43;;;;;;;18.63;10.55;;;;;;;9.36;36.11;102096.84;5068442;28;20056;-65
2022/03/08 08:37:11;;;;;;;17.35;9.10;;;;;;;9.36;36.23;102100.34;5068863;28;20048;-62
2022/03/08 08:39:38;;;;;;;15.48;9.35;;;;;;;9.39;35.77;102091.53;5067452;28;20036;-62
2022/03/08 08:42:06;;;;;;;16.00;9.82;;;;;;;9.45;35.68;102094.81;5068059;28;20110;-61
2022/03/08 08:44:37;;;;;;;14.57;9.88;;;;;;;9.51;35.49;102096.41;5068256;28;20566;-62
2022/03/08 08:47:05;;;;;;;15.15;10.02;;;;;;;9.57;35.00;102085.75;5068707;28;20462;-61
2022/03/08 08:49:32;;;;;;;14.00;8.88;;;;;;;9.67;34.63;102090.69;5068478;28;20051;-62
2022/03/08 08:52:02;;;;;;;26.75;9.95;;;;;;;9.74;34.60;102090.44;5068505;28;20098;-62
2022/03/08 08:54:29;;;;;;;13.48;8.77;;;;;;;9.78;34.15;102092.06;5068288;28;20044;-62
2022/03/08 08:56:56;;;;;;;17.15;8.98;;;;;;;9.76;34.09;102088.66;5067312;28;20040;-67
2022/03/08 08:59:23;;;;;;;13.45;9.23;;;;;;;9.78;33.97;102093.84;5068543;28;20550;-62
2022/03/08 09:01:50;;;;;;;15.95;9.10;;;;;;;9.88;33.31;102086.50;5068444;28;20052;-62
2022/03/08 09:04:16;;;;;;;15.15;8.93;;;;;;;9.90;33.33;102096.06;5068303;28;20580;-62
2022/03/08 09:06:43;;;;;;;14.07;8.88;;;;;;;9.92;33.33;102096.88;5067333;28;20063;-62
2022/03/08 09:09:10;;;;;;;13.05;8.23;;;;;;;9.97;33.11;102097.56;5067872;28;20041;-62
2022/03/08 09:11:38;;;;;;;15.98;8.48;;;;;;;10.04;33.01;102089.50;5067427;28;20080;-62
2022/03/08 09:14:05;;;;;;;14.65;9.63;;;;;;;10.13;33.23;102092.69;5067324;28;20045;-62
2022/03/08 09:16:32;;;;;;;14.98;8.00;;;;;;;10.26;33.01;102094.91;5067992;28;20068;-68
2022/03/08 09:18:59;;;;;;;13.73;8.23;;;;;;;10.36;32.77;102096.34;5067807;28;20071;-62
2022/03/08 09:21:25;;;;;;;14.15;8.57;;;;;;;10.44;32.48;102098.72;5067811;28;20049;-62
2022/03/08 09:23:52;;;;;;;14.95;8.90;;;;;;;10.48;32.35;102097.69;5068047;28;20048;-62
2022/03/08 09:26:19;;;;;;;15.32;8.52;;;;;;;10.63;32.13;102101.56;5067968;28;20055;-62
2022/03/08 09:28:45;;;;;;;11.75;8.27;;;;;;;10.78;31.98;102103.63;5066803;28;20044;-62
2022/03/08 09:31:12;;;;;;;11.02;7.85;;;;;;;10.81;31.97;102084.28;5067735;28;20056;-64
2022/03/08 09:33:40;;;;;;;12.45;7.50;;;;;;;10.98;31.78;102091.53;5067947;28;20040;-63
2022/03/08 09:36:06;;;;;;;14.10;7.63;;;;;;;10.85;32.02;102091.13;5067582;28;20197;-62
2022/03/08 09:38:33;;;;;;;13.43;8.18;;;;;;;11.03;31.64;102086.13;5068291;28;20045;-63
2022/03/08 09:41:02;;;;;;;13.15;8.60;;;;;;;11.23;31.47;102082.75;5067710;28;20048;-62
2022/03/08 09:43:31;;;;;;;12.13;8.32;;;;;;;11.46;31.11;102089.75;5067212;28;20052;-65
2022/03/08 09:45:57;;;;;;;12.70;8.65;;;;;;;11.57;30.72;102087.56;5067436;28;20129;-64
2022/03/08 09:48:24;;;;;;;14.25;8.93;;;;;;;11.68;30.67;102084.53;5067095;28;20501;-62
2022/03/08 09:50:51;;;;;;;10.75;7.90;;;;;;;11.80;30.30;102083.19;5067176;28;20123;-62
2022/03/08 09:53:18;;;;;;;8.68;6.18;;;;;;;12.05;30.37;102075.16;5065442;28;20044;-62
2022/03/08 09:55:44;;;;;;;17.55;9.20;;;;;;;12.69;30.08;102075.13;5067262;28;20059;-62
2022/03/08 09:58:11;;;;;;;11.75;8.07;;;;;;;12.53;29.98;102082.81;5068033;28;20052;-62
2022/03/08 10:00:38;;;;;;;9.85;6.65;;;;;;;12.68;30.37;102081.31;5065887;28;20443;-62
2022/03/08 10:03:09;;;;;;;10.23;7.80;;;;;;;12.64;30.84;102087.63;5067677;28;20473;-62
2022/03/08 10:05:45;;;;;;;51.08;31.67;;;;;;;13.04;29.99;102081.44;5067399;28;20051;-64
2022/03/08 10:08:18;;;;;;;92.63;40.40;;;;;;;13.06;29.45;102086.63;5067796;28;20056;-62
2022/03/08 10:11:17;;;;;;;65.13;28.08;;;;;;;12.91;29.26;102080.28;5067725;28;20086;-62
2022/03/08 10:13:49;;;;;;;16.65;10.13;;;;;;;13.34;28.89;102078.28;5040325;28;20067;-63
2022/03/08 10:16:33;;;;;;;14.18;8.40;;;;;;;14.23;27.47;102076.72;5067320;28;20056;-65
2022/03/08 10:19:02;;;;;;;34.03;11.40;;;;;;;14.63;27.03;102064.94;5070323;28;20056;-64
2022/03/08 10:21:32;;;;;;;14.00;8.57;;;;;;;14.39;27.29;102075.00;5071056;28;20055;-62
2022/03/08 10:24:28;;;;;;;25.08;17.35;;;;;;;14.83;26.52;102069.22;5071362;28;20052;-62
2022/03/08 10:27:05;;;;;;;29.00;20.33;;;;;;;15.45;25.73;102060.56;5065838;28;20630;-63
2022/03/08 10:29:36;;;;;;;14.73;10.95;;;;;;;15.46;25.51;102056.94;5070890;28;20524;-62
2022/03/08 10:32:16;;;;;;;63.92;42.08;;;;;;;15.44;25.37;102060.63;5071243;28;20087;-62
2022/03/08 10:34:45;;;;;;;22.45;15.60;;;;;;;15.33;25.66;102048.00;5069891;28;20181;-62
2022/03/08 10:37:17;;;;;;;78.72;49.58;;;;;;;15.68;24.80;102047.81;5071539;28;20049;-62
2022/03/08 10:39:55;;;;;;;95.82;59.78;;;;;;;16.00;24.31;102045.97;5070889;28;20047;-62
2022/03/08 10:42:25;;;;;;;53.20;33.13;;;;;;;16.16;24.35;102039.75;5071603;28;20059;-65
2022/03/08 10:45:00;;;;;;;12.80;8.75;;;;;;;16.21;25.13;102047.44;5070516;28;20052;-61
2022/03/08 10:47:26;;;;;;;22.38;14.30;;;;;;;16.54;26.37;102036.59;5070782;28;20044;-63
2022/03/08 10:49:57;;;;;;;17.15;11.63;;;;;;;16.79;27.58;102033.28;5069784;28;20106;-64
2022/03/08 10:52:38;;;;;;;20.45;15.30;;;;;;;16.88;28.02;102031.84;5070146;28;20091;-63
2022/03/08 10:55:17;;;;;;;23.33;16.05;;;;;;;17.17;28.47;102026.53;5070314;28;20566;-64
2022/03/08 10:57:50;;;;;;;28.58;20.42;;;;;;;17.33;28.09;102021.09;5070639;28;20040;-61
2022/03/08 11:00:20;;;;;;;20.92;15.57;;;;;;;17.46;28.30;102031.75;5069047;28;20044;-65
2022/03/08 11:02:51;;;;;;;26.92;18.02;;;;;;;17.61;28.11;102025.44;5069472;28;20052;-63
2022/03/08 11:05:20;;;;;;;21.58;15.07;;;;;;;17.88;27.54;102021.91;5069133;28;20044;-63
2022/03/08 11:07:48;;;;;;;18.38;13.32;;;;;;;18.17;27.20;102026.22;5070373;28;20406;-64
2022/03/08 11:10:16;;;;;;;15.82;11.45;;;;;;;18.35;27.19;102014.31;5069320;28;20113;-63
2022/03/08 11:12:43;;;;;;;17.85;11.48;;;;;;;18.32;26.88;102011.03;5070525;28;20045;-63
2022/03/08 11:15:13;;;;;;;50.38;31.27;;;;;;;18.43;26.31;102011.97;5069769;28;20053;-63
2022/03/08 11:17:45;;;;;;;47.38;32.45;;;;;;;18.37;26.07;102007.09;5058867;28;20047;-64
2022/03/08 11:20:16;;;;;;;20.15;12.30;;;;;;;18.57;25.70;101994.22;5070076;28;20510;-62